createdAt,value
2022-10-18T00:01:14.730Z,99439.63
2022-10-18T00:06:16.447Z,99448.09
2022-10-18T00:08:45.115Z,99433.56
2022-10-18T00:11:13.340Z,99431.53
2022-10-18T00:29:38.275Z,99413.94
2022-10-18T00:32:06.418Z,99408.69
2022-10-18T00:34:34.572Z,99403.41
2022-10-18T00:37:02.551Z,99405.56
2022-10-18T00:39:30.718Z,99398.66
2022-10-18T00:41:58.759Z,99402.47
2022-10-18T00:44:46.321Z,99403.97
2022-10-18T00:47:18.329Z,99387.53
2022-10-18T00:49:49.383Z,99391.31
2022-10-18T00:52:18.819Z,99384.75
2022-10-18T00:54:47.955Z,99384.94
2022-10-18T00:57:16.501Z,99393.56
2022-10-18T00:59:45.333Z,99380.63
2022-10-18T01:02:15.117Z,99373.84
2022-10-18T01:04:45.631Z,99370.41
2022-10-18T01:07:20.227Z,99373.50
2022-10-18T01:09:54.060Z,99359.75
2022-10-18T01:12:26.461Z,99365.13
2022-10-18T01:15:02.291Z,99366.44
2022-10-18T01:17:35.537Z,99364.22
2022-10-18T01:20:21.241Z,99370.81
2022-10-18T01:22:57.673Z,99359.47
2022-10-18T01:25:34.159Z,99354.13
2022-10-18T01:28:09.687Z,99365.16
2022-10-18T01:30:44.797Z,99368.38
2022-10-18T01:33:18.673Z,99367.72
2022-10-18T01:35:56.650Z,99350.88
2022-10-18T01:38:26.331Z,99352.66
2022-10-18T01:40:55.164Z,99369.63
2022-10-18T01:43:24.667Z,99350.75
2022-10-18T01:45:55.654Z,99359.19
2022-10-18T01:48:24.379Z,99345.19
2022-10-18T01:50:53.388Z,99339.34
2022-10-18T01:53:25.974Z,99332.16
2022-10-18T01:55:57.292Z,99334.88
2022-10-18T01:58:30.081Z,99339.53
2022-10-18T02:01:03.591Z,99334.25
2022-10-18T02:03:31.734Z,99330.56
2022-10-18T02:06:01.363Z,99317.34
2022-10-18T02:08:32.368Z,99320.56
2022-10-18T02:11:02.542Z,99311.78
2022-10-18T02:13:32.256Z,99319.38
2022-10-18T02:16:24.591Z,99310.44
2022-10-18T02:18:56.878Z,99309.34
2022-10-18T02:21:26.547Z,99316.59
2022-10-18T02:23:55.476Z,99314.63
2022-10-18T02:26:23.619Z,99324.13
2022-10-18T02:28:51.817Z,99304.84
2022-10-18T02:31:26.495Z,99305.50
2022-10-18T02:33:57.603Z,99291.97
2022-10-18T02:36:28.452Z,99284.63
2022-10-18T02:38:58.400Z,99287.81
2022-10-18T02:41:27.852Z,99297.31
2022-10-18T02:43:56.237Z,99291.72
2022-10-18T02:48:55.320Z,99285.28
2022-10-18T02:51:23.609Z,99283.41
2022-10-18T02:53:51.868Z,99271.75
2022-10-18T02:56:20.328Z,99272.47
2022-10-18T02:58:48.464Z,99251.69
2022-10-18T03:01:16.597Z,99265.38
2022-10-18T03:03:46.285Z,99252.72
2022-10-18T03:06:15.262Z,99253.41
2022-10-18T03:08:43.423Z,99259.25
2022-10-18T03:11:12.484Z,99232.53
2022-10-18T03:13:40.841Z,99237.81
2022-10-18T03:16:09.114Z,99228.78
2022-10-18T03:18:37.864Z,99239.06
2022-10-18T03:21:08.168Z,99217.66
2022-10-18T03:23:36.338Z,99209.00
2022-10-18T03:26:04.486Z,99213.22
2022-10-18T03:28:32.640Z,99216.38
2022-10-18T03:31:01.381Z,99214.44
2022-10-18T03:33:29.475Z,99196.19
2022-10-18T03:35:58.154Z,99198.41
2022-10-18T03:38:28.018Z,99191.25
2022-10-18T03:40:56.675Z,99189.97
2022-10-18T03:43:25.026Z,99192.50
2022-10-18T03:48:47.012Z,99166.81
2022-10-18T03:51:15.223Z,99170.56
2022-10-18T03:53:45.333Z,99162.38
2022-10-18T03:56:13.223Z,99156.03
2022-10-18T04:01:40.480Z,99142.06
2022-10-18T04:04:08.769Z,99151.59
2022-10-18T04:06:37.436Z,99152.84
2022-10-18T04:09:09.453Z,99160.34
2022-10-18T04:11:39.047Z,99152.72
2022-10-18T04:14:07.777Z,99145.94
2022-10-18T04:19:09.284Z,99131.94
2022-10-18T04:21:38.426Z,99130.16
2022-10-18T04:24:09.112Z,99132.03
2022-10-18T04:26:37.163Z,99123.03
2022-10-18T04:29:05.535Z,99127.03
2022-10-18T04:31:33.921Z,99123.09
2022-10-18T04:34:03.031Z,99117.50
2022-10-18T04:36:31.494Z,99120.94
2022-10-18T04:38:59.584Z,99108.81
2022-10-18T04:41:29.442Z,99104.88
2022-10-18T04:43:57.960Z,99094.78
2022-10-18T04:46:26.583Z,99103.25
2022-10-18T04:48:54.660Z,99094.78
2022-10-18T04:51:22.981Z,99087.66
2022-10-18T04:53:51.600Z,99088.94
2022-10-18T04:56:19.699Z,99087.06
2022-10-18T04:58:49.453Z,99085.28
2022-10-18T05:01:19.396Z,99083.22
2022-10-18T05:03:48.320Z,99085.13
2022-10-18T05:06:17.308Z,99084.41
2022-10-18T05:08:45.446Z,99083.59
2022-10-18T05:11:13.812Z,99082.28
2022-10-18T05:13:43.390Z,99086.25
2022-10-18T05:16:16.561Z,99079.69
2022-10-18T05:18:44.893Z,99087.66
2022-10-18T05:21:14.076Z,99090.06
2022-10-18T05:23:42.554Z,99100.13
2022-10-18T05:26:10.750Z,99102.25
2022-10-18T05:28:40.809Z,99107.59
2022-10-18T05:31:11.795Z,99099.13
2022-10-18T05:33:41.978Z,99098.66
2022-10-18T05:36:10.683Z,99094.44
2022-10-18T05:38:40.672Z,99097.09
2022-10-18T05:41:09.568Z,99092.88
2022-10-18T05:43:38.845Z,99087.88
2022-10-18T05:46:13.719Z,99088.91
2022-10-18T05:48:45.522Z,99086.53
2022-10-18T05:51:13.823Z,99084.97
2022-10-18T05:53:42.444Z,99080.16
2022-10-18T05:56:12.217Z,99071.72
2022-10-18T05:58:41.970Z,99066.19
2022-10-18T06:01:11.300Z,99065.66
2022-10-18T06:03:39.808Z,99062.47
2022-10-18T06:06:10.773Z,99056.38
2022-10-18T06:08:40.357Z,99055.56
2022-10-18T06:11:09.421Z,99052.16
2022-10-18T06:13:41.516Z,99035.69
2022-10-18T06:16:09.910Z,99041.00
2022-10-18T06:18:38.439Z,99044.44
2022-10-18T06:21:07.144Z,99036.75
2022-10-18T06:23:37.151Z,99033.00
2022-10-18T06:26:06.825Z,99023.22
2022-10-18T06:28:35.573Z,99019.22
2022-10-18T06:31:04.147Z,99009.66
2022-10-18T06:33:32.629Z,99000.94
2022-10-18T06:36:01.922Z,98987.41
2022-10-18T06:38:30.819Z,98991.91
2022-10-18T06:41:00.818Z,98965.41
2022-10-18T06:43:29.523Z,98929.41
2022-10-18T06:48:56.251Z,98873.81
2022-10-18T06:51:24.499Z,98882.56
2022-10-18T06:54:06.101Z,98882.81
2022-10-18T06:56:43.350Z,98897.38
2022-10-18T06:59:12.085Z,98901.06
2022-10-18T07:01:41.517Z,98885.72
2022-10-18T07:04:10.052Z,98865.59
2022-10-18T07:06:38.655Z,98847.84
2022-10-18T07:09:07.298Z,98851.84
2022-10-18T07:11:35.862Z,98848.91
2022-10-18T07:14:06.350Z,98801.81
2022-10-18T07:16:36.684Z,98800.22
2022-10-18T07:19:06.079Z,98801.78
2022-10-18T07:21:34.674Z,98793.06
2022-10-18T07:24:05.872Z,98778.78
2022-10-18T07:26:35.634Z,98763.94
2022-10-18T07:29:07.591Z,98758.63
2022-10-18T07:31:38.704Z,98746.72
2022-10-18T07:34:07.681Z,98727.66
2022-10-18T07:36:36.658Z,98718.91
2022-10-18T07:39:05.570Z,98703.28
2022-10-18T07:41:34.788Z,98694.00
2022-10-18T07:44:03.723Z,98689.53
2022-10-18T07:46:33.204Z,98671.28
2022-10-18T07:49:04.422Z,98666.75
2022-10-18T07:51:36.129Z,98652.72
2022-10-18T07:54:04.768Z,98645.06
2022-10-18T07:56:33.598Z,98631.03
2022-10-18T07:59:05.206Z,98638.47
2022-10-18T08:01:33.823Z,98608.31
2022-10-18T08:04:07.523Z,98580.78
2022-10-18T08:06:38.904Z,98570.19
2022-10-18T08:09:07.816Z,98562.78
2022-10-18T08:11:36.572Z,98562.25
2022-10-18T08:14:05.829Z,98559.06
2022-10-18T08:25:22.516Z,98481.78
2022-10-18T08:27:50.710Z,98450.84
2022-10-18T08:30:19.401Z,98414.84
2022-10-18T08:32:47.968Z,98418.56
2022-10-18T08:35:16.276Z,98379.16
2022-10-18T08:37:45.892Z,98358.47
2022-10-18T08:40:14.867Z,98341.03
2022-10-18T08:42:54.887Z,98331.75
2022-10-18T08:48:47.751Z,98271.38
2022-10-18T08:51:19.999Z,98281.41
2022-10-18T08:56:29.741Z,98231.09
2022-10-18T08:58:59.987Z,98283.06
2022-10-18T09:01:34.147Z,98247.28
2022-10-18T09:04:08.048Z,98248.31
2022-10-18T09:06:39.271Z,98336.75
2022-10-18T09:12:02.017Z,98303.91
2022-10-18T09:14:54.600Z,98302.75
2022-10-18T09:17:29.331Z,98266.19
2022-10-18T09:20:04.964Z,98260.56
2022-10-18T09:22:40.655Z,98264.16
2022-10-18T09:25:13.202Z,98260.41
2022-10-18T09:27:46.344Z,98252.66
2022-10-18T09:30:21.112Z,98250.69
2022-10-18T09:32:56.139Z,98245.31
2022-10-18T09:35:26.094Z,98240.81
2022-10-18T09:37:56.087Z,98228.38
2022-10-18T09:40:26.718Z,98224.91
2022-10-18T09:42:57.369Z,98223.25
2022-10-18T09:45:28.600Z,98240.72
2022-10-18T09:48:03.239Z,98234.34
2022-10-18T09:50:33.978Z,98224.22
2022-10-18T09:53:08.200Z,98207.88
2022-10-18T09:55:38.322Z,98204.88
2022-10-18T09:58:08.176Z,98201.81
2022-10-18T10:00:40.866Z,98191.66
2022-10-18T10:03:12.836Z,98198.22
2022-10-18T10:05:41.032Z,98187.13
2022-10-18T10:08:09.198Z,98179.88
2022-10-18T10:10:39.999Z,98175.22
2022-10-18T10:13:08.931Z,98185.44
2022-10-18T10:15:42.331Z,98170.81
2022-10-18T10:18:20.746Z,98176.81
2022-10-18T10:20:49.948Z,98163.56
2022-10-18T10:23:21.581Z,98172.25
2022-10-18T10:25:52.524Z,98172.03
2022-10-18T10:28:22.122Z,98157.28
2022-10-18T10:30:50.465Z,98161.59
2022-10-18T10:33:39.540Z,98152.50
2022-10-18T10:36:18.913Z,98158.69
2022-10-18T10:38:47.160Z,98159.09
2022-10-18T10:41:22.065Z,98152.19
2022-10-18T10:43:50.639Z,98150.91
2022-10-18T10:46:19.885Z,98147.88
2022-10-18T10:48:50.726Z,98156.94
2022-10-18T10:51:30.309Z,98153.06
2022-10-18T10:54:00.821Z,98144.09
2022-10-18T10:56:30.443Z,98144.59
2022-10-18T10:59:01.640Z,98150.75
2022-10-18T11:01:31.826Z,98152.81
2022-10-18T11:04:01.253Z,98130.16
2022-10-18T11:06:47.905Z,98118.56
2022-10-18T11:09:31.303Z,98137.47
2022-10-18T11:12:11.795Z,98131.56
2022-10-18T11:14:43.574Z,98106.69
2022-10-18T11:17:19.355Z,98099.03
2022-10-18T11:19:57.019Z,98120.66
2022-10-18T11:22:27.151Z,98148.25
2022-10-18T11:24:57.280Z,98125.47
2022-10-18T11:27:27.664Z,98130.22
2022-10-18T11:30:03.861Z,98128.53
2022-10-18T11:32:36.126Z,98131.22
2022-10-18T11:35:09.188Z,98136.72
2022-10-18T11:37:48.831Z,98113.44
2022-10-18T11:40:29.465Z,98135.94
2022-10-18T11:43:03.219Z,98125.78
2022-10-18T11:45:36.772Z,98118.63
2022-10-18T11:48:13.741Z,98112.50
2022-10-18T11:50:44.568Z,98130.41
2022-10-18T11:53:21.294Z,98122.72
2022-10-18T11:55:58.424Z,98121.22
2022-10-18T11:58:46.191Z,98130.34
2022-10-18T12:01:17.519Z,98120.63
2022-10-18T12:03:56.088Z,98112.97
2022-10-18T12:06:26.979Z,98119.09
2022-10-18T12:08:57.578Z,98132.88
2022-10-18T12:11:30.985Z,98118.78
2022-10-18T12:14:00.957Z,98128.16
2022-10-18T12:16:49.924Z,98116.47
2022-10-18T12:19:23.667Z,98114.13
2022-10-18T12:21:55.630Z,98121.63
2022-10-18T12:24:26.329Z,98122.47
2022-10-18T12:27:01.084Z,98124.50
2022-10-18T12:29:31.884Z,98127.63
2022-10-18T12:32:02.627Z,98115.75
2022-10-18T12:34:36.556Z,98109.16
2022-10-18T12:37:19.759Z,98116.81
2022-10-18T12:40:08.981Z,98120.31
2022-10-18T12:42:43.462Z,98120.47
2022-10-18T12:45:21.032Z,98122.22
2022-10-18T12:50:58.658Z,98128.78
2022-10-18T12:53:28.129Z,98127.56
2022-10-18T12:55:57.176Z,98133.50
2022-10-18T12:58:30.927Z,98123.81
2022-10-18T13:01:01.437Z,98127.25
2022-10-18T13:03:32.405Z,98129.47
2022-10-18T13:06:05.604Z,98140.00
2022-10-18T13:08:42.041Z,98119.09
2022-10-18T13:11:33.453Z,98126.69
2022-10-18T13:14:19.527Z,98126.50
2022-10-18T13:16:52.970Z,98127.78
2022-10-18T13:19:25.426Z,98130.59
2022-10-18T13:21:57.875Z,98125.09
2022-10-18T13:24:30.901Z,98125.13
2022-10-18T13:30:04.477Z,98141.59
2022-10-18T13:32:37.057Z,98125.41
2022-10-18T13:35:06.816Z,98149.72
2022-10-18T13:37:35.207Z,98137.03
2022-10-18T13:40:16.561Z,98166.53
2022-10-18T13:42:44.866Z,98152.72
2022-10-18T13:45:40.225Z,98159.47
2022-10-18T13:48:25.994Z,98174.03
2022-10-18T13:50:57.446Z,98176.25
2022-10-18T13:53:41.970Z,98180.94
2022-10-18T13:56:36.747Z,98184.38
2022-10-18T13:59:15.108Z,98182.66
2022-10-18T14:01:53.193Z,98197.97
2022-10-18T14:04:37.760Z,98205.38
2022-10-18T14:07:09.297Z,98248.91
2022-10-18T14:09:45.639Z,98209.59
2022-10-18T14:12:19.430Z,98191.03
2022-10-18T14:14:51.299Z,98197.31
2022-10-18T14:17:27.042Z,98199.06
2022-10-18T14:19:58.295Z,98239.53
2022-10-18T14:22:30.537Z,98219.75
2022-10-18T14:25:00.253Z,98206.72
2022-10-18T14:27:28.973Z,98199.63
2022-10-18T14:30:15.720Z,98194.16
2022-10-18T14:32:45.524Z,98207.44
2022-10-18T14:35:32.069Z,98212.78
2022-10-18T14:38:03.168Z,98194.25
2022-10-18T14:40:34.285Z,98203.94
2022-10-18T14:43:06.377Z,98187.28
2022-10-18T14:45:34.628Z,98218.13
2022-10-18T14:48:09.762Z,98226.41
2022-10-18T14:50:37.832Z,98236.81
2022-10-18T14:53:08.915Z,98233.25
2022-10-18T14:55:39.381Z,98233.56
2022-10-18T14:58:14.560Z,98270.66
2022-10-18T15:00:46.307Z,98233.72
2022-10-18T15:03:18.428Z,98255.41
2022-10-18T15:05:57.009Z,98262.38
2022-10-18T15:08:28.299Z,98239.03
2022-10-18T15:10:57.830Z,98247.97
2022-10-18T15:13:26.770Z,98276.22
2022-10-18T15:15:55.664Z,98282.47
2022-10-18T15:18:25.148Z,98254.88
2022-10-18T15:21:09.329Z,98250.56
2022-10-18T15:23:39.041Z,98272.41
2022-10-18T15:26:08.447Z,98278.03
2022-10-18T15:28:38.367Z,98273.31
2022-10-18T15:31:07.291Z,98286.09
2022-10-18T15:36:25.543Z,98289.25
2022-10-18T15:39:07.686Z,98313.25
2022-10-18T15:41:39.936Z,98311.25
2022-10-18T15:44:19.526Z,98330.19
2022-10-18T15:46:48.469Z,98314.31
2022-10-18T15:49:37.158Z,98344.09
2022-10-18T15:52:16.148Z,98315.78
2022-10-18T15:57:16.281Z,98324.13
2022-10-18T15:59:51.332Z,98312.53
2022-10-18T16:02:19.704Z,98315.31
2022-10-18T16:04:48.485Z,98323.38
2022-10-18T16:07:16.816Z,98333.38
2022-10-18T16:09:46.747Z,98333.28
2022-10-18T16:12:14.958Z,98330.13
2022-10-18T16:14:43.245Z,98341.56
2022-10-18T16:17:18.906Z,98330.34
2022-10-18T16:19:47.670Z,98325.72
2022-10-18T16:22:41.583Z,98332.25
2022-10-18T16:25:12.131Z,98346.91
2022-10-18T16:27:40.507Z,98358.41
2022-10-18T16:30:13.467Z,98353.50
2022-10-18T16:32:42.136Z,98342.84
2022-10-18T16:35:13.739Z,98368.19
2022-10-18T16:37:42.325Z,98360.47
2022-10-18T16:40:23.127Z,98380.38
2022-10-18T16:42:51.254Z,98387.91
2022-10-18T16:45:19.758Z,98400.41
2022-10-18T16:47:48.059Z,98395.66
2022-10-18T16:50:18.176Z,98380.41
2022-10-18T16:52:46.516Z,98419.25
2022-10-18T16:55:21.655Z,98430.16
2022-10-18T16:57:52.788Z,98381.19
2022-10-18T17:03:11.119Z,98398.41
2022-10-18T17:05:41.430Z,98393.59
2022-10-18T17:08:18.824Z,98406.41
2022-10-18T17:10:47.917Z,98410.34
2022-10-18T17:13:20.016Z,98419.59
2022-10-18T17:15:48.783Z,98394.38
2022-10-18T17:22:02.668Z,98383.63
2022-10-18T17:24:32.419Z,98394.97
2022-10-18T17:27:02.673Z,98405.53
2022-10-18T17:29:34.421Z,98438.97
2022-10-18T17:32:02.949Z,98399.84
2022-10-18T17:34:34.140Z,98441.44
2022-10-18T17:37:28.499Z,98431.97
2022-10-18T17:39:57.232Z,98430.31
2022-10-18T17:42:28.280Z,98408.28
2022-10-18T17:44:58.868Z,98394.84
2022-10-18T17:47:29.197Z,98405.06
2022-10-18T17:49:57.844Z,98421.56
2022-10-18T17:52:26.505Z,98412.38
2022-10-18T17:54:54.961Z,98418.91
2022-10-18T17:57:23.807Z,98404.00
2022-10-18T17:59:55.224Z,98415.69
2022-10-18T18:02:36.153Z,98427.38
2022-10-18T18:05:10.135Z,98432.47
2022-10-18T18:07:38.340Z,98428.28
2022-10-18T18:10:07.422Z,98438.00
2022-10-18T18:12:36.419Z,98440.78
2022-10-18T18:15:05.170Z,98423.91
2022-10-18T18:17:56.055Z,98425.59
2022-10-18T18:20:24.694Z,98424.91
2022-10-18T18:22:53.073Z,98419.09
2022-10-18T18:25:21.460Z,98412.34
2022-10-18T18:27:49.833Z,98412.13
2022-10-18T18:30:18.197Z,98418.31
2022-10-18T18:32:47.829Z,98414.13
2022-10-18T18:35:18.532Z,98414.47
2022-10-18T18:37:52.914Z,98421.69
2022-10-18T18:40:21.576Z,98431.03
2022-10-18T18:43:12.063Z,98413.22
2022-10-18T18:45:38.747Z,98400.38
2022-10-18T18:48:08.993Z,98392.16
2022-10-18T18:50:38.070Z,98404.47
2022-10-18T18:53:09.174Z,98407.66
2022-10-18T18:55:40.326Z,98401.84
2022-10-18T18:58:09.152Z,98412.50
2022-10-18T19:00:43.332Z,98399.53
2022-10-18T19:03:16.136Z,98399.06
2022-10-18T19:05:45.518Z,98408.63
2022-10-18T19:08:13.922Z,98410.97
2022-10-18T19:10:42.509Z,98412.97
2022-10-18T19:13:10.707Z,98414.84
2022-10-18T19:15:39.285Z,98425.84
2022-10-18T19:18:10.297Z,98426.03
2022-10-18T19:20:41.105Z,98427.06
2022-10-18T19:23:09.491Z,98421.19
2022-10-18T19:25:38.006Z,98428.88
2022-10-18T19:28:06.483Z,98432.81
2022-10-18T19:30:36.704Z,98432.84
2022-10-18T19:33:05.326Z,98427.72
2022-10-18T19:35:33.386Z,98430.13
2022-10-18T19:38:03.438Z,98419.56
2022-10-18T19:40:32.295Z,98429.38
2022-10-18T19:43:01.259Z,98426.56
2022-10-18T19:45:29.979Z,98426.16
2022-10-18T19:47:58.385Z,98426.94
2022-10-18T19:53:00.088Z,98407.84
2022-10-18T19:55:30.639Z,98400.66
2022-10-18T19:57:59.247Z,98398.56
2022-10-18T20:00:27.664Z,98405.44
2022-10-18T20:02:55.752Z,98400.09
2022-10-18T20:05:24.379Z,98413.50
2022-10-18T20:07:52.686Z,98402.28
2022-10-18T20:10:20.835Z,98420.06
2022-10-18T20:12:50.966Z,98409.09
2022-10-18T20:15:22.950Z,98393.50
2022-10-18T20:17:52.750Z,98389.44
2022-10-18T20:20:23.938Z,98382.41
2022-10-18T20:22:52.636Z,98372.78
2022-10-18T20:25:21.826Z,98370.13
2022-10-18T20:27:52.155Z,98365.59
2022-10-18T20:30:20.426Z,98366.75
2022-10-18T20:32:48.549Z,98365.38
2022-10-18T20:35:16.938Z,98371.94
2022-10-18T20:37:45.339Z,98377.25
2022-10-18T20:40:14.184Z,98372.28
2022-10-18T20:42:42.603Z,98371.59
2022-10-18T20:45:13.186Z,98371.91
2022-10-18T20:47:41.642Z,98384.97
2022-10-18T20:50:11.013Z,98382.88
2022-10-18T20:52:39.074Z,98373.41
2022-10-18T20:55:07.458Z,98374.91
2022-10-18T20:57:36.671Z,98364.13
2022-10-18T21:00:05.746Z,98359.41
2022-10-18T21:02:35.863Z,98359.81
2022-10-18T21:05:04.580Z,98364.50
2022-10-18T21:07:32.833Z,98378.53
2022-10-18T21:10:01.014Z,98373.97
2022-10-18T21:12:29.303Z,98377.66
2022-10-18T21:14:57.767Z,98368.06
2022-10-18T21:17:26.189Z,98376.25
2022-10-18T21:19:56.667Z,98373.59
2022-10-18T21:22:24.652Z,98365.41
2022-10-18T21:24:52.839Z,98366.16
2022-10-18T21:27:21.123Z,98363.19
2022-10-18T21:29:50.161Z,98364.16
2022-10-18T21:32:19.051Z,98357.28
2022-10-18T21:34:47.312Z,98351.69
2022-10-18T21:37:16.896Z,98344.44
2022-10-18T21:39:46.392Z,98359.94
2022-10-18T21:42:14.506Z,98358.72
2022-10-18T21:44:42.680Z,98349.97
2022-10-18T21:47:11.074Z,98360.94
2022-10-18T21:49:39.247Z,98356.69
2022-10-18T21:52:07.648Z,98348.75
2022-10-18T21:54:37.325Z,98351.38
2022-10-18T21:57:05.703Z,98345.00
2022-10-18T21:59:33.890Z,98342.75
2022-10-18T22:02:03.296Z,98346.41
2022-10-18T22:04:36.207Z,98333.44
2022-10-18T22:07:05.144Z,98340.09
2022-10-18T22:09:33.416Z,98335.72
2022-10-18T22:12:03.617Z,98325.88
2022-10-18T22:14:31.959Z,98340.97
2022-10-18T22:17:00.113Z,98332.16
2022-10-18T22:19:28.503Z,98328.13
2022-10-18T22:21:57.038Z,98317.50
2022-10-18T22:24:25.104Z,98306.47
2022-10-18T22:26:53.038Z,98305.88
2022-10-18T22:29:22.694Z,98297.41
2022-10-18T22:31:51.633Z,98306.47
2022-10-18T22:34:21.636Z,98298.22
2022-10-18T22:36:49.740Z,98306.03
2022-10-18T22:39:18.622Z,98304.09
2022-10-18T22:41:47.377Z,98310.97
2022-10-18T22:44:16.595Z,98316.78
2022-10-18T22:46:46.027Z,98303.22
2022-10-18T22:49:14.684Z,98313.44
2022-10-18T22:51:43.154Z,98309.91
2022-10-18T22:54:11.306Z,98311.34
2022-10-18T22:56:40.046Z,98293.22
2022-10-18T22:59:08.101Z,98286.53
2022-10-18T23:01:36.737Z,98292.63
2022-10-18T23:04:06.485Z,98278.00
2022-10-18T23:06:35.749Z,98276.13
2022-10-18T23:09:06.247Z,98275.63
2022-10-18T23:11:35.068Z,98263.16
2022-10-18T23:14:04.141Z,98272.06
2022-10-18T23:16:33.535Z,98251.59
2022-10-18T23:19:01.855Z,98243.78
2022-10-18T23:21:32.091Z,98238.94
2022-10-18T23:24:00.661Z,98241.63
2022-10-18T23:26:29.216Z,98247.69
2022-10-18T23:28:57.480Z,98246.09
2022-10-18T23:31:26.880Z,98234.91
2022-10-18T23:33:56.366Z,98220.56
2022-10-18T23:36:24.961Z,98228.72
2022-10-18T23:38:54.876Z,98227.06
2022-10-18T23:41:23.100Z,98226.50
2022-10-18T23:43:51.327Z,98232.09
2022-10-18T23:46:20.019Z,98214.56
2022-10-18T23:48:48.819Z,98205.84
2022-10-18T23:51:17.082Z,98219.63
2022-10-18T23:53:45.375Z,98230.72
2022-10-18T23:56:16.157Z,98222.78
2022-10-18T23:58:45.085Z,98221.75
